Time;durP1;ratioP1;P1;durP2;ratioP2;P2;SDS_P1;SDS_P2;PMS_P1;PMS_P2;Temp;Humidity;BMP_temperature;BMP_pressure;BME280_temperature;BME280_humidity;BME280_pressure;Samples;Min_cycle;Max_cycle;Signal;HPM_P1;HPM_P2
2022/03/23 00:00:35;;;;;;;46.83;29.10;;;7.80;94.80;;;;;;5007351;28;20542;-59
2022/03/23 00:03:01;;;;;;;45.57;26.83;;;7.90;95.20;;;;;;5009673;28;20037;-59
2022/03/23 00:05:28;;;;;;;39.42;24.58;;;7.90;95.30;;;;;;4997762;28;20484;-59
2022/03/23 00:07:54;;;;;;;45.95;27.02;;;7.80;95.00;;;;;;5009825;28;20041;-59
2022/03/23 00:10:20;;;;;;;48.65;29.20;;;7.70;94.80;;;;;;5004224;28;20049;-59
2022/03/23 00:12:45;;;;;;;42.28;28.90;;;7.70;95.10;;;;;;4997625;28;20077;-59
2022/03/23 00:15:12;;;;;;;41.93;28.23;;;7.60;95.30;;;;;;5007353;28;20069;-60
2022/03/23 00:17:39;;;;;;;42.17;27.65;;;7.60;95.60;;;;;;5002398;28;20049;-59
2022/03/23 00:20:05;;;;;;;45.90;32.40;;;7.60;95.90;;;;;;4999247;28;20042;-58
2022/03/23 00:22:31;;;;;;;58.10;35.70;;;7.50;96.30;;;;;;5008372;28;20507;-57
2022/03/23 00:24:57;;;;;;;36.22;22.50;;;7.60;96.70;;;;;;4995718;28;20045;-58
2022/03/23 00:27:24;;;;;;;31.95;22.67;;;7.60;96.30;;;;;;4993671;28;20084;-58
2022/03/23 00:29:50;;;;;;;37.45;24.48;;;7.40;95.50;;;;;;5008654;28;20049;-57
2022/03/23 00:32:15;;;;;;;42.10;27.80;;;7.30;95.20;;;;;;5008101;28;20042;-58
2022/03/23 00:34:41;;;;;;;43.23;27.10;;;7.30;95.60;;;;;;4992167;28;20527;-59
2022/03/23 00:37:06;;;;;;;42.17;29.40;;;7.20;96.00;;;;;;4992826;28;20042;-58
2022/03/23 00:39:32;;;;;;;39.03;27.03;;;7.10;96.10;;;;;;4998522;28;20042;-57
2022/03/23 00:41:58;;;;;;;41.80;28.37;;;7.10;96.50;;;;;;5011297;28;20526;-57
2022/03/23 00:44:24;;;;;;;42.23;27.27;;;7.00;97.00;;;;;;4993967;28;20403;-58
2022/03/23 00:46:49;;;;;;;42.83;26.73;;;7.00;97.20;;;;;;4999174;28;20521;-57
2022/03/23 00:49:15;;;;;;;48.90;28.97;;;7.00;97.20;;;;;;5010705;28;20038;-58
2022/03/23 00:51:41;;;;;;;41.50;29.37;;;7.00;97.30;;;;;;4993439;28;20096;-57
2022/03/23 00:54:09;;;;;;;38.28;28.92;;;7.00;97.40;;;;;;5005065;28;20654;-57
2022/03/23 00:56:35;;;;;;;42.38;27.83;;;7.00;97.50;;;;;;5005123;28;20039;-57
2022/03/23 00:59:00;;;;;;;38.55;27.13;;;7.00;97.60;;;;;;4990963;28;20104;-58
2022/03/23 01:01:29;;;;;;;41.27;28.43;;;7.00;97.60;;;;;;5004913;28;20046;-57
2022/03/23 01:03:54;;;;;;;40.63;28.35;;;7.00;97.60;;;;;;4997798;28;20310;-57
2022/03/23 01:06:20;;;;;;;40.57;25.87;;;7.00;97.80;;;;;;5007277;28;20046;-58
2022/03/23 01:08:46;;;;;;;37.08;23.77;;;7.00;97.60;;;;;;5009976;28;20280;-56
2022/03/23 01:11:11;;;;;;;47.87;25.17;;;7.00;97.60;;;;;;4993765;28;20491;-57
2022/03/23 01:13:37;;;;;;;38.73;25.10;;;7.00;97.90;;;;;;5002976;28;20088;-57
2022/03/23 01:16:05;;;;;;;40.27;25.63;;;6.90;97.80;;;;;;5004341;28;20041;-58
2022/03/23 01:18:31;;;;;;;38.97;26.08;;;6.90;97.90;;;;;;4991071;28;20049;-57
2022/03/23 01:20:56;;;;;;;37.85;27.05;;;6.90;97.80;;;;;;5005738;28;20037;-57
2022/03/23 01:23:22;;;;;;;39.83;27.07;;;7.00;97.80;;;;;;5007778;28;20664;-57
2022/03/23 01:25:48;;;;;;;33.67;23.40;;;6.90;97.80;;;;;;5008474;28;20042;-57
2022/03/23 01:28:13;;;;;;;31.70;22.70;;;6.90;97.80;;;;;;5009236;28;20049;-57
2022/03/23 01:30:39;;;;;;;29.67;20.00;;;6.80;97.60;;;;;;4990179;28;20046;-56
2022/03/23 01:33:04;;;;;;;30.93;20.60;;;6.80;97.50;;;;;;5004704;28;20038;-58
2022/03/23 01:35:30;;;;;;;35.83;23.47;;;6.70;97.50;;;;;;5006024;28;20046;-56
2022/03/23 01:37:55;;;;;;;39.17;27.20;;;6.70;97.60;;;;;;5008684;28;20042;-57
2022/03/23 01:40:21;;;;;;;36.83;25.77;;;6.70;97.80;;;;;;5007954;28;20480;-57
2022/03/23 01:42:47;;;;;;;35.83;25.97;;;6.70;98.00;;;;;;4996711;28;20128;-58
2022/03/23 01:45:14;;;;;;;35.43;25.63;;;6.70;98.10;;;;;;4993196;28;20053;-58
2022/03/23 01:47:39;;;;;;;45.25;26.33;;;6.70;98.30;;;;;;5007166;28;20041;-58
2022/03/23 01:50:06;;;;;;;38.73;25.20;;;6.70;98.40;;;;;;4996975;28;20049;-58
2022/03/23 01:52:32;;;;;;;38.22;25.45;;;6.70;98.50;;;;;;4991829;28;20445;-57
2022/03/23 01:55:01;;;;;;;36.78;23.00;;;6.70;98.60;;;;;;5000763;28;20381;-57
2022/03/23 01:57:28;;;;;;;43.40;24.70;;;6.60;98.60;;;;;;5007065;28;20133;-58
2022/03/23 01:59:54;;;;;;;42.60;25.80;;;6.50;98.70;;;;;;4995413;28;20034;-57
2022/03/23 02:02:19;;;;;;;43.03;25.90;;;6.50;98.80;;;;;;5002331;28;20097;-57
2022/03/23 02:04:45;;;;;;;31.93;22.53;;;6.50;98.90;;;;;;5000696;28;20296;-58
2022/03/23 02:07:11;;;;;;;31.93;22.67;;;6.50;99.10;;;;;;4993188;28;20266;-58
2022/03/23 02:09:36;;;;;;;33.05;22.75;;;6.50;98.80;;;;;;4996869;28;20117;-57
2022/03/23 02:12:04;;;;;;;41.85;25.13;;;6.40;99.00;;;;;;4996390;28;20137;-58
2022/03/23 02:14:29;;;;;;;33.03;23.33;;;6.40;99.00;;;;;;5009509;28;20042;-58
2022/03/23 02:16:55;;;;;;;34.60;22.40;;;6.40;99.00;;;;;;4992175;28;20039;-58
2022/03/23 02:19:21;;;;;;;39.65;23.02;;;6.40;99.00;;;;;;4993981;28;20034;-57
2022/03/23 02:21:54;;;;;;;37.00;22.25;;;6.30;98.90;;;;;;5012678;28;20065;-57
2022/03/23 02:24:28;;;;;;;31.33;20.55;;;6.30;99.20;;;;;;4993435;28;20042;-58
2022/03/23 02:26:55;;;;;;;33.83;21.35;;;6.30;99.10;;;;;;5006461;28;20470;-58
2022/03/23 02:29:23;;;;;;;;;;;6.30;99.30;;;;;;5011927;28;20042;-58
2022/03/23 02:31:50;;;;;;;30.35;21.00;;;6.30;99.40;;;;;;5013771;28;19921;-58
2022/03/23 02:34:16;;;;;;;31.45;20.70;;;6.20;99.20;;;;;;4995211;28;20571;-56
2022/03/23 02:36:42;;;;;;;33.13;21.15;;;6.10;99.40;;;;;;4994633;28;20443;-58
2022/03/23 02:39:08;;;;;;;28.00;20.42;;;6.10;99.80;;;;;;4993702;28;20120;-58
2022/03/23 02:41:34;;;;;;;31.37;21.57;;;6.00;99.90;;;;;;4996584;28;20477;-57
2022/03/23 02:44:02;;;;;;;39.28;24.33;;;6.00;99.70;;;;;;4999563;28;20046;-56
2022/03/23 02:46:35;;;;;;;35.17;24.23;;;6.00;99.90;;;;;;4996894;28;20128;-57
2022/03/23 02:49:02;;;;;;;36.00;23.70;;;6.00;99.90;;;;;;5008364;28;20046;-57
2022/03/23 02:51:29;;;;;;;41.53;23.65;;;6.00;99.90;;;;;;4994903;28;20074;-57
2022/03/23 03:02:30;;;;;;;31.55;21.60;;;5.80;99.90;;;;;;5002392;28;20527;-57
2022/03/23 03:04:56;;;;;;;38.78;24.35;;;5.70;99.90;;;;;;5013224;28;20060;-55
2022/03/23 03:07:22;;;;;;;33.47;23.90;;;5.60;99.90;;;;;;5011308;28;20483;-58
2022/03/23 03:09:47;;;;;;;32.37;22.73;;;5.50;99.90;;;;;;5009274;28;20045;-58
2022/03/23 03:12:13;;;;;;;32.43;22.40;;;5.50;99.90;;;;;;5000676;28;20036;-58
2022/03/23 03:14:39;;;;;;;32.97;23.10;;;5.50;99.90;;;;;;4999399;28;20129;-58
2022/03/23 03:17:06;;;;;;;34.33;23.65;;;5.40;99.90;;;;;;4995772;28;20767;-57
2022/03/23 03:19:32;;;;;;;34.58;23.52;;;5.40;99.90;;;;;;5012912;28;20038;-56
2022/03/23 03:21:59;;;;;;;34.20;23.63;;;5.40;99.90;;;;;;5002362;28;20034;-57
2022/03/23 03:24:24;;;;;;;36.65;24.10;;;5.40;99.90;;;;;;4999700;28;20121;-58
2022/03/23 03:26:50;;;;;;;34.23;21.80;;;5.40;99.90;;;;;;5008170;28;20095;-57
2022/03/23 03:29:16;;;;;;;35.75;23.10;;;5.40;99.90;;;;;;4992756;28;20042;-57
2022/03/23 03:31:42;;;;;;;34.50;25.60;;;5.40;99.90;;;;;;5006422;28;20037;-58
2022/03/23 03:34:08;;;;;;;39.17;24.47;;;5.40;99.90;;;;;;5010261;28;20103;-56
2022/03/23 03:36:34;;;;;;;31.50;23.88;;;5.40;99.90;;;;;;5010790;28;20809;-56
2022/03/23 03:39:00;;;;;;;38.13;23.27;;;5.30;99.90;;;;;;4994639;28;20049;-57
2022/03/23 03:41:26;;;;;;;34.78;23.63;;;5.30;99.90;;;;;;5005651;28;20076;-57
2022/03/23 03:43:52;;;;;;;40.45;27.83;;;5.20;99.90;;;;;;5010188;28;20041;-57
2022/03/23 03:46:18;;;;;;;39.25;27.33;;;5.20;99.90;;;;;;5011636;28;20065;-57
2022/03/23 03:48:43;;;;;;;37.72;23.73;;;5.20;99.90;;;;;;4996198;28;20121;-58
2022/03/23 03:51:09;;;;;;;34.40;25.38;;;5.20;99.90;;;;;;4997949;28;20041;-57
2022/03/23 03:53:36;;;;;;;34.53;22.73;;;5.10;99.90;;;;;;5005600;28;20042;-56
2022/03/23 03:56:02;;;;;;;36.88;22.52;;;5.10;99.90;;;;;;4992596;28;20123;-55
2022/03/23 03:58:28;;;;;;;32.55;23.10;;;5.10;99.90;;;;;;4993299;28;20481;-58
2022/03/23 04:00:54;;;;;;;41.10;24.58;;;5.00;99.90;;;;;;4993261;28;20103;-57
2022/03/23 04:03:20;;;;;;;34.00;21.13;;;5.00;99.90;;;;;;5004758;28;20124;-58
2022/03/23 04:05:46;;;;;;;36.30;23.13;;;5.00;99.90;;;;;;4993495;28;20176;-58
2022/03/23 04:08:11;;;;;;;43.50;26.65;;;5.00;99.90;;;;;;4993279;28;20113;-58
2022/03/23 04:10:37;;;;;;;41.53;25.42;;;5.00;99.90;;;;;;4999063;28;20057;-58
2022/03/23 04:13:03;;;;;;;47.85;27.58;;;5.10;99.90;;;;;;5005138;28;20042;-58
2022/03/23 04:15:29;;;;;;;44.63;28.02;;;5.10;99.90;;;;;;5002297;28;20495;-57
2022/03/23 04:17:55;;;;;;;46.42;27.73;;;5.20;99.90;;;;;;5011409;28;20048;-57
2022/03/23 04:20:22;;;;;;;38.13;24.92;;;5.20;99.90;;;;;;5000623;28;20269;-58
2022/03/23 04:22:48;;;;;;;34.65;22.90;;;5.20;99.90;;;;;;4992822;28;20525;-57
2022/03/23 04:25:15;;;;;;;43.22;25.60;;;5.20;99.90;;;;;;4991653;28;20042;-58
2022/03/23 04:27:44;;;;;;;;;;;5.20;99.90;;;;;;4992892;28;20419;-57
2022/03/23 04:30:12;;;;;;;36.03;23.25;;;5.20;99.90;;;;;;4999661;28;20000;-57
2022/03/23 04:32:37;;;;;;;35.50;24.27;;;5.20;99.90;;;;;;5010979;28;20481;-58
2022/03/23 04:35:04;;;;;;;37.17;23.03;;;5.20;99.90;;;;;;4992749;28;20038;-58
2022/03/23 04:37:31;;;;;;;41.08;23.10;;;5.20;99.90;;;;;;4999110;28;20042;-58
2022/03/23 04:39:56;;;;;;;32.80;21.23;;;5.20;99.90;;;;;;5008960;28;20535;-57
2022/03/23 04:42:22;;;;;;;34.30;23.63;;;5.20;99.90;;;;;;4990856;28;20102;-57
2022/03/23 04:44:47;;;;;;;36.87;23.10;;;5.10;99.90;;;;;;4995591;28;20046;-58
2022/03/23 04:47:13;;;;;;;31.33;21.67;;;5.10;99.90;;;;;;5004733;28;20037;-58
2022/03/23 04:49:39;;;;;;;33.50;21.13;;;5.00;99.90;;;;;;5011107;28;20037;-58
2022/03/23 04:52:05;;;;;;;39.97;25.00;;;5.00;99.90;;;;;;4996740;28;20050;-58
2022/03/23 04:54:30;;;;;;;45.65;28.88;;;4.90;99.90;;;;;;5007418;28;20110;-57
2022/03/23 04:56:56;;;;;;;41.63;27.10;;;4.90;99.90;;;;;;4995664;28;20332;-58
2022/03/23 04:59:21;;;;;;;34.80;24.25;;;4.90;99.90;;;;;;5010644;28;20069;-58
2022/03/23 05:01:47;;;;;;;35.07;23.57;;;4.90;99.90;;;;;;5009395;28;20415;-58
2022/03/23 05:04:13;;;;;;;31.98;22.60;;;4.80;99.90;;;;;;5008723;28;20096;-56
2022/03/23 05:06:38;;;;;;;40.77;27.47;;;4.80;99.90;;;;;;5008641;28;20285;-57
2022/03/23 05:09:04;;;;;;;42.90;26.37;;;4.70;99.90;;;;;;5009970;28;20402;-58
2022/03/23 05:11:30;;;;;;;49.07;29.70;;;4.60;99.90;;;;;;4996859;28;20038;-58
2022/03/23 05:13:55;;;;;;;44.87;29.13;;;4.50;99.90;;;;;;4992102;28;20039;-57
2022/03/23 05:16:21;;;;;;;47.77;31.87;;;4.50;99.90;;;;;;4993648;28;20041;-58
2022/03/23 05:18:46;;;;;;;49.83;30.80;;;4.50;99.90;;;;;;5010031;28;20484;-57
2022/03/23 05:21:12;;;;;;;51.63;31.23;;;4.60;99.90;;;;;;4995878;28;20046;-57
2022/03/23 05:23:37;;;;;;;54.47;32.70;;;4.60;99.90;;;;;;4996260;28;20038;-58
2022/03/23 05:26:03;;;;;;;55.77;31.73;;;4.60;99.90;;;;;;5009887;28;20045;-58
2022/03/23 05:28:29;;;;;;;44.30;30.20;;;4.60;99.90;;;;;;4992989;28;20507;-58
2022/03/23 05:30:55;;;;;;;45.95;30.58;;;4.70;99.90;;;;;;4996401;28;20091;-58
2022/03/23 05:33:20;;;;;;;46.27;28.97;;;4.70;99.90;;;;;;5010203;28;20503;-57
2022/03/23 05:35:46;;;;;;;42.73;28.27;;;4.70;99.90;;;;;;5006822;28;20053;-57
2022/03/23 05:38:11;;;;;;;48.27;30.00;;;4.70;99.90;;;;;;5002894;28;20038;-59
2022/03/23 05:40:37;;;;;;;45.20;27.83;;;4.80;99.90;;;;;;4991919;28;20069;-57
2022/03/23 05:43:02;;;;;;;46.70;29.10;;;4.80;99.90;;;;;;5002185;28;20265;-57
2022/03/23 05:45:28;;;;;;;45.17;31.43;;;4.80;99.90;;;;;;5003508;28;20081;-57
2022/03/23 05:47:54;;;;;;;39.60;28.10;;;4.80;99.90;;;;;;5005517;28;20044;-57
2022/03/23 05:50:20;;;;;;;42.17;29.97;;;4.80;99.90;;;;;;4999773;28;20043;-57
2022/03/23 05:52:45;;;;;;;38.63;25.00;;;4.80;99.90;;;;;;4995474;28;20048;-58
2022/03/23 05:55:11;;;;;;;42.70;26.37;;;4.80;99.90;;;;;;5011437;28;20402;-57
2022/03/23 05:57:37;;;;;;;31.50;22.80;;;4.80;99.90;;;;;;5012514;28;20084;-58
2022/03/23 06:00:05;;;;;;;42.78;28.20;;;4.80;99.90;;;;;;5005337;28;20043;-57
2022/03/23 06:02:31;;;;;;;42.72;28.63;;;4.80;99.90;;;;;;4994709;28;20050;-57
2022/03/23 06:04:57;;;;;;;41.67;28.23;;;4.80;99.90;;;;;;4993967;28;20042;-55
2022/03/23 06:07:22;;;;;;;43.55;27.40;;;4.90;99.90;;;;;;4995400;28;20046;-57
2022/03/23 06:09:48;;;;;;;39.63;28.17;;;5.00;99.90;;;;;;5004369;28;20038;-57
2022/03/23 06:12:14;;;;;;;46.53;28.93;;;5.20;99.90;;;;;;5000672;28;20412;-58
2022/03/23 06:14:44;;;;;;;39.67;28.00;;;5.30;99.90;;;;;;5012897;28;20410;-57
2022/03/23 06:17:10;;;;;;;45.58;30.73;;;5.50;99.90;;;;;;5004898;28;20030;-57
2022/03/23 06:19:36;;;;;;;46.17;29.90;;;5.70;99.90;;;;;;4995311;28;20038;-57
2022/03/23 06:22:03;;;;;;;43.70;30.50;;;5.90;99.90;;;;;;5008834;28;20107;-57
2022/03/23 06:24:28;;;;;;;44.25;30.17;;;6.10;99.90;;;;;;5011755;28;20281;-57
2022/03/23 06:26:54;;;;;;;48.87;30.93;;;6.30;99.90;;;;;;4995209;28;20037;-57
2022/03/23 06:29:19;;;;;;;45.90;30.80;;;6.50;99.90;;;;;;5001828;28;20542;-58
2022/03/23 06:31:45;;;;;;;43.60;31.00;;;6.80;99.90;;;;;;5002356;28;20065;-58
2022/03/23 06:34:10;;;;;;;41.63;30.97;;;7.10;99.90;;;;;;5009700;28;20445;-58
2022/03/23 06:36:36;;;;;;;46.83;30.63;;;7.40;99.90;;;;;;5010381;28;20042;-58
2022/03/23 06:39:04;;;;;;;51.20;30.60;;;7.60;99.90;;;;;;5012917;28;20041;-56
2022/03/23 06:41:29;;;;;;;42.90;28.63;;;7.90;99.90;;;;;;5013153;28;20044;-58
2022/03/23 06:43:55;;;;;;;41.47;29.10;;;8.00;99.90;;;;;;5012107;28;20113;-57
2022/03/23 06:46:21;;;;;;;38.90;29.07;;;8.00;99.90;;;;;;5012748;28;20427;-57
2022/03/23 06:48:47;;;;;;;39.33;29.55;;;8.10;99.90;;;;;;4997011;28;20472;-57
2022/03/23 06:51:13;;;;;;;47.65;31.30;;;8.10;99.90;;;;;;5000002;28;20056;-57
2022/03/23 06:53:39;;;;;;;47.75;33.47;;;8.20;99.90;;;;;;5002520;28;20081;-59
2022/03/23 06:56:04;;;;;;;46.35;32.47;;;8.30;99.90;;;;;;4995195;28;20070;-57
2022/03/23 06:58:30;;;;;;;50.27;31.40;;;8.40;99.90;;;;;;4993565;28;20134;-58
2022/03/23 07:00:57;;;;;;;48.27;31.00;;;8.60;99.90;;;;;;5003974;28;20029;-58
2022/03/23 07:03:23;;;;;;;48.38;32.22;;;8.60;99.90;;;;;;5009544;28;20542;-58
2022/03/23 07:05:49;;;;;;;44.95;31.27;;;8.80;99.90;;;;;;4993440;28;20089;-57
2022/03/23 07:10:59;;;;;;;48.13;31.33;;;9.20;99.90;;;;;;4993917;28;20046;-56
2022/03/23 07:13:25;;;;;;;43.57;29.00;;;9.50;99.90;;;;;;4993073;28;20047;-57
2022/03/23 07:15:50;;;;;;;50.85;30.52;;;9.60;99.90;;;;;;5006502;28;20088;-56
2022/03/23 07:18:16;;;;;;;45.33;30.57;;;9.70;99.60;;;;;;5006372;28;20556;-57
2022/03/23 07:20:42;;;;;;;48.07;30.73;;;9.80;99.40;;;;;;5005391;28;20462;-58
2022/03/23 07:23:07;;;;;;;44.45;30.92;;;9.80;99.30;;;;;;5005286;28;20124;-58
2022/03/23 07:25:33;;;;;;;46.20;29.87;;;9.90;99.10;;;;;;5008803;28;20128;-58
2022/03/23 07:27:58;;;;;;;48.63;31.93;;;10.00;99.10;;;;;;5008243;28;20042;-58
2022/03/23 07:30:26;;;;;;;52.93;30.67;;;10.00;99.10;;;;;;5008969;28;20041;-55
2022/03/23 07:32:53;;;;;;;42.42;27.40;;;10.10;99.30;;;;;;5008960;28;20045;-52
2022/03/23 07:35:19;;;;;;;35.30;26.20;;;10.10;99.40;;;;;;5010063;28;20054;-56
2022/03/23 07:37:44;;;;;;;50.72;30.38;;;10.20;99.10;;;;;;5010066;28;20037;-54
2022/03/23 07:40:10;;;;;;;47.87;27.53;;;10.30;99.10;;;;;;5010401;28;20065;-56
2022/03/23 07:42:36;;;;;;;39.88;28.40;;;10.40;98.70;;;;;;5009316;28;20037;-53
2022/03/23 07:45:02;;;;;;;42.37;28.17;;;10.50;98.20;;;;;;5008880;28;20518;-54
2022/03/23 07:47:27;;;;;;;43.28;29.70;;;10.50;97.60;;;;;;5008695;28;20049;-54
2022/03/23 07:49:53;;;;;;;41.93;27.13;;;10.60;97.40;;;;;;5011187;28;20066;-52
2022/03/23 07:52:18;;;;;;;42.30;27.38;;;10.60;96.50;;;;;;5006494;28;20041;-55
2022/03/23 07:54:45;;;;;;;39.13;27.17;;;10.70;96.10;;;;;;5009872;28;20422;-56
2022/03/23 07:57:11;;;;;;;38.35;26.77;;;10.80;95.50;;;;;;5009626;28;20491;-52
2022/03/23 07:59:37;;;;;;;37.55;27.23;;;10.90;95.50;;;;;;5010227;28;20560;-54
2022/03/23 08:02:03;;;;;;;42.33;26.55;;;11.00;95.30;;;;;;5007084;28;20046;-52
2022/03/23 08:04:28;;;;;;;49.25;26.92;;;11.00;94.80;;;;;;5009649;28;20044;-54
2022/03/23 08:06:54;;;;;;;77.20;29.70;;;11.10;94.40;;;;;;5008656;28;20034;-53
2022/03/23 08:09:19;;;;;;;112.07;29.77;;;11.20;93.90;;;;;;5010392;28;20041;-52
2022/03/23 08:11:45;;;;;;;49.03;25.83;;;11.40;93.60;;;;;;5008999;28;20041;-51
2022/03/23 08:14:10;;;;;;;40.03;25.57;;;11.50;92.50;;;;;;5009649;28;20034;-53
2022/03/23 08:16:36;;;;;;;48.10;24.23;;;11.60;92.00;;;;;;5005629;28;20319;-56
2022/03/23 08:19:02;;;;;;;30.37;22.53;;;11.70;92.10;;;;;;5009002;28;20418;-56
2022/03/23 08:21:28;;;;;;;35.17;24.08;;;11.90;91.70;;;;;;5010617;28;20044;-54
2022/03/23 08:23:55;;;;;;;35.63;24.67;;;12.00;91.00;;;;;;5008856;28;20364;-54
2022/03/23 08:26:21;;;;;;;35.85;25.52;;;12.10;90.50;;;;;;5006249;28;20082;-56
2022/03/23 08:28:47;;;;;;;35.85;24.38;;;12.20;90.40;;;;;;5009392;28;20061;-54
2022/03/23 08:31:13;;;;;;;33.20;23.27;;;12.40;90.10;;;;;;5009580;28;20232;-52
2022/03/23 08:33:39;;;;;;;35.10;24.90;;;12.50;89.90;;;;;;5002551;28;20107;-54
2022/03/23 08:36:06;;;;;;;32.40;22.50;;;12.60;90.10;;;;;;5005899;28;20038;-56
2022/03/23 08:38:32;;;;;;;35.53;23.80;;;12.70;88.70;;;;;;5007409;28;20042;-52
2022/03/23 08:40:58;;;;;;;30.95;23.75;;;12.80;88.90;;;;;;5009562;28;20117;-55
2022/03/23 08:43:24;;;;;;;31.73;23.57;;;12.90;86.90;;;;;;5009076;28;20527;-56
2022/03/23 08:45:50;;;;;;;35.65;22.58;;;13.00;85.50;;;;;;5008330;28;20371;-54
2022/03/23 08:48:18;;;;;;;30.75;21.67;;;13.10;85.80;;;;;;5006670;28;20468;-55
2022/03/23 08:50:48;;;;;;;30.35;20.75;;;13.30;85.00;;;;;;5009528;28;20392;-56
2022/03/23 08:53:13;;;;;;;29.90;21.88;;;13.40;84.00;;;;;;5009151;28;20112;-52
2022/03/23 08:55:40;;;;;;;29.00;21.38;;;13.50;83.40;;;;;;5008275;28;20050;-55
2022/03/23 08:58:06;;;;;;;28.65;21.00;;;13.70;81.50;;;;;;5008682;28;20045;-56
2022/03/23 09:00:32;;;;;;;;;;;13.80;80.60;;;;;;5002159;28;20514;-56
2022/03/23 09:02:58;;;;;;;28.75;20.50;;;13.90;78.50;;;;;;5002998;28;19996;-56
2022/03/23 09:05:23;;;;;;;24.47;20.07;;;14.10;77.60;;;;;;5004314;28;20495;-55
2022/03/23 09:07:49;;;;;;;32.05;21.13;;;14.20;77.20;;;;;;5005814;28;20358;-54
2022/03/23 09:10:15;;;;;;;26.58;19.85;;;14.30;76.30;;;;;;5005025;28;20088;-54
2022/03/23 09:12:41;;;;;;;;;;;14.40;74.60;;;;;;5005203;28;20112;-55
2022/03/23 09:15:09;;;;;;;26.88;18.45;;;14.60;73.50;;;;;;5004021;28;19976;-55
2022/03/23 09:17:35;;;;;;;22.35;18.23;;;14.60;70.00;;;;;;5004794;28;20037;-55
2022/03/23 09:20:01;;;;;;;;;;;14.70;70.10;;;;;;5004185;28;20034;-56
2022/03/23 09:22:28;;;;;;;23.38;17.83;;;14.80;64.70;;;;;;5002994;28;19991;-56
2022/03/23 09:24:54;;;;;;;20.17;16.63;;;14.90;68.10;;;;;;5003515;28;20038;-55
2022/03/23 09:27:19;;;;;;;19.42;16.80;;;15.00;67.50;;;;;;5003291;28;20117;-53
2022/03/23 09:29:45;;;;;;;18.02;15.25;;;15.10;66.40;;;;;;5004736;28;20116;-52
2022/03/23 09:32:12;;;;;;;21.02;15.65;;;15.20;64.90;;;;;;5004426;28;20040;-55
2022/03/23 09:34:39;;;;;;;19.05;15.98;;;15.30;62.60;;;;;;5003009;28;20060;-54
2022/03/23 09:39:51;;;;;;;17.45;14.93;;;15.50;62.40;;;;;;5004653;28;20129;-52
2022/03/23 09:42:21;;;;;;;16.67;14.45;;;15.60;60.50;;;;;;5004402;28;20038;-55
2022/03/23 09:44:47;;;;;;;18.48;14.50;;;15.70;57.50;;;;;;5001896;28;20092;-56
2022/03/23 09:47:14;;;;;;;19.52;14.57;;;15.80;60.10;;;;;;5004225;28;20042;-53
2022/03/23 09:49:40;;;;;;;19.38;13.57;;;15.90;57.70;;;;;;5004225;28;20038;-53
2022/03/23 09:52:06;;;;;;;20.23;14.95;;;15.90;54.40;;;;;;5003630;28;20298;-55
2022/03/23 09:54:32;;;;;;;18.02;14.73;;;16.00;56.60;;;;;;5000639;28;20040;-55
2022/03/23 09:56:57;;;;;;;20.90;14.88;;;16.00;56.80;;;;;;5000681;28;20091;-55
2022/03/23 09:59:23;;;;;;;16.55;12.43;;;16.10;55.50;;;;;;5001660;28;20331;-54
2022/03/23 10:01:51;;;;;;;17.67;14.02;;;16.20;56.20;;;;;;5003785;28;20523;-56
2022/03/23 10:04:20;;;;;;;14.95;13.30;;;16.30;54.70;;;;;;5000032;28;20034;-53
2022/03/23 10:06:51;;;;;;;17.25;13.82;;;16.40;54.70;;;;;;4999679;28;20042;-56
2022/03/23 10:09:25;;;;;;;18.65;13.80;;;16.60;54.80;;;;;;5000814;28;20034;-54
2022/03/23 10:12:30;;;;;;;14.82;12.88;;;16.70;53.20;;;;;;5004318;28;20088;-55
2022/03/23 10:15:44;;;;;;;13.77;12.32;;;16.70;50.60;;;;;;5003923;28;20475;-54
2022/03/23 10:18:47;;;;;;;16.23;14.13;;;16.80;51.70;;;;;;5003585;28;20040;-56
2022/03/23 10:21:14;;;;;;;18.00;13.75;;;16.80;48.20;;;;;;5001399;28;20565;-55
2022/03/23 10:24:10;;;;;;;15.15;13.43;;;16.80;50.40;;;;;;5001386;28;20095;-56
2022/03/23 10:26:36;;;;;;;17.00;14.80;;;16.80;50.30;;;;;;4994482;28;20053;-55
2022/03/23 10:29:03;;;;;;;16.02;14.32;;;16.90;51.80;;;;;;5003558;28;20570;-57
2022/03/23 10:31:29;;;;;;;18.85;13.68;;;17.00;51.10;;;;;;5004423;28;20034;-53
2022/03/23 10:34:09;;;;;;;14.23;12.63;;;17.10;50.10;;;;;;4998147;28;20679;-55
2022/03/23 10:36:50;;;;;;;20.17;13.93;;;17.20;49.70;;;;;;5002867;28;20038;-57
2022/03/23 10:39:17;;;;;;;18.63;13.57;;;17.20;48.90;;;;;;5004585;28;20466;-56
2022/03/23 10:41:43;;;;;;;18.50;13.55;;;17.20;47.00;;;;;;5005565;28;20089;-56
2022/03/23 10:44:18;;;;;;;16.38;14.13;;;17.20;49.00;;;;;;5008716;28;20112;-56
2022/03/23 10:46:44;;;;;;;19.33;14.60;;;17.20;49.30;;;;;;5004373;28;20115;-55
2022/03/23 10:49:11;;;;;;;22.73;12.88;;;17.30;50.20;;;;;;5005882;28;20030;-56
2022/03/23 10:51:37;;;;;;;18.35;14.00;;;17.40;48.60;;;;;;5007471;28;20172;-56
2022/03/23 10:54:23;;;;;;;14.13;12.48;;;17.50;49.60;;;;;;5007604;28;20038;-56
2022/03/23 10:56:49;;;;;;;16.92;13.48;;;17.50;48.10;;;;;;5004541;28;20407;-57
2022/03/23 10:59:22;;;;;;;20.35;12.13;;;17.50;46.30;;;;;;5007510;28;20038;-56
2022/03/23 11:02:05;;;;;;;18.52;13.43;;;17.60;47.40;;;;;;5004508;28;20040;-56
2022/03/23 11:04:47;;;;;;;15.93;14.07;;;17.60;48.30;;;;;;5007519;28;20451;-55
2022/03/23 11:07:30;;;;;;;17.13;12.95;;;17.60;46.90;;;;;;5005549;28;20092;-56
2022/03/23 11:15:46;;;;;;;14.00;12.05;;;17.80;46.70;;;;;;5003840;28;20045;-57
2022/03/23 11:18:21;;;;;;;18.08;13.45;;;17.80;45.70;;;;;;5005075;28;20124;-56
2022/03/23 11:20:51;;;;;;;18.83;13.43;;;17.90;45.50;;;;;;5005881;28;20072;-57
2022/03/23 11:23:25;;;;;;;18.65;13.85;;;18.00;46.30;;;;;;5006422;28;20083;-56
2022/03/23 11:26:01;;;;;;;14.82;12.85;;;18.00;46.40;;;;;;4997882;28;20580;-57
2022/03/23 11:28:29;;;;;;;21.03;13.07;;;18.00;46.30;;;;;;5007810;28;20042;-57
2022/03/23 11:30:56;;;;;;;14.63;12.60;;;18.10;46.80;;;;;;5007751;28;20313;-57
2022/03/23 11:33:24;;;;;;;14.00;12.60;;;18.10;45.50;;;;;;5007292;28;20073;-56
2022/03/23 11:35:51;;;;;;;19.30;14.38;;;18.10;46.10;;;;;;4997826;28;20538;-57
2022/03/23 11:38:21;;;;;;;23.10;14.98;;;18.20;46.20;;;;;;5005877;28;20128;-57
2022/03/23 11:40:49;;;;;;;19.23;13.13;;;18.20;46.70;;;;;;5006437;28;20033;-56
2022/03/23 11:43:16;;;;;;;19.95;11.88;;;18.20;45.60;;;;;;5006324;28;20041;-56
2022/03/23 11:45:46;;;;;;;23.38;13.18;;;18.20;46.60;;;;;;5004851;28;20050;-57
2022/03/23 11:48:34;;;;;;;16.75;13.15;;;18.20;46.00;;;;;;5006118;28;20038;-57
2022/03/23 11:51:15;;;;;;;18.80;12.40;;;18.20;45.40;;;;;;5005310;28;20081;-56
2022/03/23 11:53:55;;;;;;;18.02;13.15;;;18.30;46.40;;;;;;5005298;28;20124;-57
2022/03/23 11:56:27;;;;;;;23.92;14.05;;;18.40;47.20;;;;;;5004716;28;20076;-57
2022/03/23 11:58:53;;;;;;;17.88;12.02;;;18.50;46.30;;;;;;5005311;28;20056;-56
2022/03/23 12:01:19;;;;;;;20.80;12.93;;;18.60;46.30;;;;;;5005945;28;20034;-54
2022/03/23 12:04:00;;;;;;;18.02;11.95;;;18.60;44.70;;;;;;5005880;28;20411;-54
2022/03/23 12:06:39;;;;;;;18.73;11.73;;;18.60;45.60;;;;;;5005361;28;20068;-57
2022/03/23 12:09:06;;;;;;;14.75;11.15;;;18.60;44.70;;;;;;5005328;28;20677;-54
2022/03/23 12:11:47;;;;;;;;;;;18.70;46.00;;;;;;5006914;28;20053;-55
2022/03/23 12:14:35;;;;;;;20.20;12.05;;;18.80;45.40;;;;;;5005586;28;19928;-55
2022/03/23 12:17:03;;;;;;;18.90;12.45;;;18.90;45.30;;;;;;5005036;28;20510;-56
2022/03/23 12:19:31;;;;;;;15.68;11.48;;;18.90;45.90;;;;;;5005944;28;20048;-56
2022/03/23 12:22:06;;;;;;;16.15;11.15;;;18.90;45.30;;;;;;4998104;28;20038;-55
2022/03/23 12:25:02;;;;;;;17.58;11.20;;;19.00;45.20;;;;;;4999787;28;20048;-55
2022/03/23 12:28:12;;;;;;;16.50;11.35;;;19.00;45.20;;;;;;5002896;28;20038;-54
2022/03/23 12:30:58;;;;;;;22.23;13.02;;;19.10;45.10;;;;;;4980169;28;20078;-56
2022/03/23 12:33:29;;;;;;;20.55;12.50;;;19.10;43.80;;;;;;4989031;28;20043;-54
2022/03/23 12:36:03;;;;;;;23.02;10.95;;;19.20;44.40;;;;;;4999600;28;20134;-56
2022/03/23 12:38:30;;;;;;;22.55;11.07;;;19.20;44.70;;;;;;4988957;28;20085;-57
2022/03/23 12:41:06;;;;;;;22.58;11.45;;;19.30;45.20;;;;;;5002518;28;20034;-56
2022/03/23 12:43:46;;;;;;;22.67;11.23;;;19.40;44.60;;;;;;4993719;28;20056;-56
2022/03/23 12:46:20;;;;;;;17.75;11.23;;;19.50;45.30;;;;;;4988093;28;20034;-56
2022/03/23 12:57:53;;;;;;;16.73;10.85;;;19.70;44.00;;;;;;4975672;28;20053;-55
2022/03/23 13:00:30;;;;;;;18.55;11.00;;;19.70;44.30;;;;;;4987519;28;20465;-56
2022/03/23 13:03:07;;;;;;;18.48;11.63;;;19.70;42.70;;;;;;4986793;28;20069;-57
2022/03/23 13:05:35;;;;;;;17.88;10.88;;;19.60;43.70;;;;;;4987952;28;20146;-57
2022/03/23 13:08:21;;;;;;;19.50;10.65;;;19.50;44.50;;;;;;4996141;28;20096;-58